Aliotti Bros — WDE9402 — position and weather

sailwx.info

Track history (hours):
 
Tides and Currents Weather Stations Pressure Air Temp Water Temp Dewpoint Dewpoint Depression Visibility Wind Speed Wind Dir Waves Ship Positions

Aliotti Bros

Owner: ALIOTTI, DOMENIC J, SEASIDE, CA. More information available from US FCC via Universal Licensing System and Coast Guard Vessel Documentation Center.

Last reported at 2017-Dec-11 15:45 UTC. Time now 2017-Dec-12 14:23 UTC.
Position N 34°14' W 119°16'.

Length 21 m.

Type: Fishing. MMSI: 367416790.

Date/timePositionNaut miles runAvg speedWind from/ knotsBaromVisibWave heightAir tempDewpointWater temp
2017-Dec-11 15:45N 34°14' W 119°16'1 2.5
2017-Dec-11 15:29N 34°15' W 119°17'4 8.9
2017-Dec-11 15:00N 34°11' W 119°20'4 9.0
2017-Dec-11 14:30N 34°08' W 119°23'4 8.7
2017-Dec-11 13:59N 34°04' W 119°27'6 0.3
2017-Dec-10 21:30N 34°00' W 119°31'5 9.4
2017-Dec-10 20:56N 34°04' W 119°27'5 9.7
2017-Dec-10 20:25N 34°08' W 119°23'5 9.5
2017-Dec-10 19:53N 34°12' W 119°19'4 8.7
2017-Dec-10 19:24N 34°15' W 119°16'0 0.1
2017-Dec-10 13:38N 34°15' W 119°16'0 0.0
2017-Dec-10 13:14N 34°15' W 119°16'0 0.0
2017-Dec-10 11:55N 34°15' W 119°16'0 0.0
2017-Dec-10 06:43N 34°15' W 119°16'0 0.0
2017-Dec-10 06:16N 34°15' W 119°16'0 0.0
2017-Dec-10 05:52N 34°15' W 119°16'0 0.0
2017-Dec-10 04:11N 34°15' W 119°16'0 0.0
2017-Dec-10 02:26N 34°15' W 119°16'0 0.0
2017-Dec-10 01:56N 34°15' W 119°16'0 0.0
2017-Dec-10 01:22N 34°15' W 119°16'0 0.0
2017-Dec-10 00:56N 34°15' W 119°16'0 0.0
2017-Dec-09 22:53N 34°15' W 119°16'0 0.0
2017-Dec-09 20:47N 34°15' W 119°16'0 0.0
2017-Dec-09 19:13N 34°15' W 119°16'0 0.0
2017-Dec-09 16:41N 34°15' W 119°16'0 0.0
2017-Dec-09 16:16N 34°15' W 119°16'0 0.0
2017-Dec-09 15:50N 34°15' W 119°16'0 0.0
2017-Dec-09 15:26N 34°15' W 119°16'0 0.0
2017-Dec-09 12:53N 34°15' W 119°16'0 0.0
2017-Dec-09 12:02N 34°15' W 119°16'0 0.0
2017-Dec-09 11:59N 34°15' W 119°16'0 0.0
2017-Dec-09 10:41N 34°15' W 119°16'0 0.0
2017-Dec-09 09:29N 34°15' W 119°16'0 0.0
2017-Dec-09 05:41N 34°15' W 119°16'0 0.0
2017-Dec-09 05:26N 34°15' W 119°16'0 0.0
2017-Dec-09 03:10N 34°15' W 119°16'0 0.0
2017-Dec-08 23:43N 34°15' W 119°16'0 0.0
2017-Dec-08 23:25N 34°15' W 119°16'0 0.0
2017-Dec-08 22:58N 34°15' W 119°16'0 0.0
2017-Dec-08 21:01N 34°14' W 119°16'0 0.0
2017-Dec-08 20:58N 34°14' W 119°16'0 0.0
2017-Dec-08 20:22N 34°15' W 119°16'0 0.0
2017-Dec-08 17:25N 34°15' W 119°16'1 1.6
2017-Dec-08 16:53N 34°15' W 119°17'1 2.0
2017-Dec-08 16:24N 34°14' W 119°16'0 0.0
2017-Dec-08 15:12N 34°14' W 119°16'0 0.1
2017-Dec-08 14:03N 34°15' W 119°16'0 0.6
2017-Dec-08 13:56N 34°15' W 119°16'3 6.6
2017-Dec-08 13:29N 34°13' W 119°19'5 9.1
2017-Dec-08 12:57N 34°09' W 119°22'4 8.7
2017-Dec-08 12:29N 34°06' W 119°25'4 9.0
2017-Dec-08 12:00N 34°03' W 119°29'4 0.3
2017-Dec-08 00:41N 33°60' W 119°31'310.2
2017-Dec-08 00:22N 34°02' W 119°29'4 9.8
2017-Dec-08 00:00N 34°05' W 119°26'5 9.6
2017-Dec-07 23:26N 34°09' W 119°22'4 9.7
2017-Dec-07 22:59N 34°13' W 119°19'3 1.1
2017-Dec-07 20:13N 34°15' W 119°16'0 0.0
2017-Dec-07 16:45N 34°14' W 119°16'0 0.0
2017-Dec-07 14:56N 34°15' W 119°16'3 7.2
2017-Dec-07 14:30N 34°14' W 119°20'5 9.3
2017-Dec-07 13:59N 34°14' W 119°25'5 8.8
2017-Dec-07 13:25N 34°14' W 119°31'4 8.8
2017-Dec-07 12:58N 34°14' W 119°36'5 8.9
2017-Dec-07 12:26N 34°13' W 119°42'4 9.0
2017-Dec-07 11:59N 34°13' W 119°47'6 9.3
2017-Dec-07 11:19N 34°09' W 119°52'6 8.8
2017-Dec-07 10:36N 34°03' W 119°57'1 8.0
2017-Dec-07 10:29N 34°03' W 119°56'3 5.7
2017-Dec-07 10:00N 34°00' W 119°54'17 2.6
2017-Dec-07 03:42N 33°58' W 119°34'210.3
2017-Dec-07 03:30N 33°58' W 119°32'5 9.8
2017-Dec-07 03:00N 33°56' W 119°26'6 9.2
2017-Dec-07 02:18N 33°55' W 119°19'3 9.1
2017-Dec-07 02:01N 33°54' W 119°16'5 9.6
2017-Dec-07 01:30N 33°53' W 119°10'5 9.5
2017-Dec-07 01:00N 33°52' W 119°04'5 9.4
2017-Dec-07 00:30N 33°51' W 118°59'5 9.1
2017-Dec-07 00:00N 33°49' W 118°54'5 9.2
2017-Dec-06 23:30N 33°48' W 118°48'5 9.5
2017-Dec-06 23:01N 33°47' W 118°43'5 9.4
2017-Dec-06 22:31N 33°46' W 118°37'  
2017-Dec-04 09:45N 34°15' W 119°16'2 5.6
2017-Dec-04 09:27N 34°14' W 119°18'4 9.0
2017-Dec-04 08:58N 34°11' W 119°21'4 8.7
2017-Dec-04 08:30N 34°08' W 119°25'5 8.8
2017-Dec-04 07:56N 34°04' W 119°28'8 0.7
2017-Dec-03 20:26N 33°59' W 119°36'410.2
2017-Dec-03 20:00N 34°00' W 119°31'5 9.6
2017-Dec-03 19:30N 34°04' W 119°27'5 9.4
2017-Dec-03 19:00N 34°08' W 119°24'5 9.5
2017-Dec-03 18:26N 34°12' W 119°19'4 0.3
2017-Dec-03 06:00N 34°15' W 119°16'0 0.0
2017-Dec-03 05:30N 34°15' W 119°16'0 0.0
2017-Dec-03 03:06N 34°15' W 119°16'0 0.0
2017-Dec-03 00:42N 34°15' W 119°16'0 0.0
2017-Dec-03 00:12N 34°15' W 119°16'0 0.0
2017-Dec-02 23:00N 34°15' W 119°16'0 0.0
2017-Dec-02 21:39N 34°14' W 119°16'0 0.0
2017-Dec-02 21:27N 34°14' W 119°16'0 0.0
2017-Dec-02 20:48N 34°15' W 119°16'0 0.0
2017-Dec-02 19:57N 34°15' W 119°16'0 0.0
2017-Dec-02 16:48N 34°15' W 119°16'0 0.0
2017-Dec-02 15:10N 34°15' W 119°16'0 0.0
2017-Dec-02 14:43N 34°15' W 119°16'0 0.0
2017-Dec-02 14:28N 34°15' W 119°16'0 0.0
2017-Dec-02 13:13N 34°15' W 119°16'0 0.0
2017-Dec-02 12:58N 34°15' W 119°16'0 0.0
2017-Dec-02 12:22N 34°15' W 119°16'0 0.0
2017-Dec-02 10:58N 34°15' W 119°16'0 0.0
2017-Dec-02 10:28N 34°15' W 119°16'0 0.0
2017-Dec-02 08:52N 34°15' W 119°16'0 0.0
2017-Dec-02 08:28N 34°15' W 119°16'0 0.0
2017-Dec-02 07:31N 34°15' W 119°16'0 0.0
2017-Dec-02 06:10N 34°15' W 119°16'0 0.0
2017-Dec-02 04:19N 34°15' W 119°16'0 0.0
2017-Dec-02 03:52N 34°15' W 119°16'0 0.0
2017-Dec-02 02:22N 34°15' W 119°16'0 0.0
2017-Dec-02 01:55N 34°15' W 119°16'0 0.0
2017-Dec-02 00:37N 34°15' W 119°16'0 0.0
2017-Dec-02 00:28N 34°15' W 119°16'0 0.0
2017-Dec-01 22:37N 34°15' W 119°16'0 0.0
2017-Dec-01 21:34N 34°14' W 119°16'0 0.0
2017-Dec-01 19:31N 34°15' W 119°16'0 0.0
2017-Dec-01 19:22N 34°15' W 119°16'0 0.0
2017-Dec-01 18:43N 34°15' W 119°16'0 0.0
2017-Dec-01 18:28N 34°15' W 119°16'0 0.0
2017-Dec-01 17:49N 34°15' W 119°16'0 0.0
2017-Dec-01 15:58N 34°15' W 119°16'  
Track history (hours):
 
Tides and Currents Weather Stations Pressure Air Temp Water Temp Dewpoint Dewpoint Depression Visibility Wind Speed Wind Dir Waves Ship Positions

Aliotti Bros

Owner: ALIOTTI, DOMENIC J, SEASIDE, CA. More information available from US FCC via Universal Licensing System and Coast Guard Vessel Documentation Center.

Last reported at 2017-Dec-11 15:45 UTC. Time now 2017-Dec-12 14:23 UTC.
Position N 34°14' W 119°16'.

Length 21 m.

Type: Fishing. MMSI: 367416790.

Date/timePositionNaut miles runAvg speedWind from/ knotsBaromVisibWave heightAir tempDewpointWater temp
2017-Dec-11 15:45N 34°14' W 119°16'1 2.5
2017-Dec-11 15:29N 34°15' W 119°17'4 8.9
2017-Dec-11 15:00N 34°11' W 119°20'4 9.0
2017-Dec-11 14:30N 34°08' W 119°23'4 8.7
2017-Dec-11 13:59N 34°04' W 119°27'6 0.3
2017-Dec-10 21:30N 34°00' W 119°31'5 9.4
2017-Dec-10 20:56N 34°04' W 119°27'5 9.7
2017-Dec-10 20:25N 34°08' W 119°23'5 9.5
2017-Dec-10 19:53N 34°12' W 119°19'4 8.7
2017-Dec-10 19:24N 34°15' W 119°16'0 0.1
2017-Dec-10 13:38N 34°15' W 119°16'0 0.0
2017-Dec-10 13:14N 34°15' W 119°16'0 0.0
2017-Dec-10 11:55N 34°15' W 119°16'0 0.0
2017-Dec-10 06:43N 34°15' W 119°16'0 0.0
2017-Dec-10 06:16N 34°15' W 119°16'0 0.0
2017-Dec-10 05:52N 34°15' W 119°16'0 0.0
2017-Dec-10 04:11N 34°15' W 119°16'0 0.0
2017-Dec-10 02:26N 34°15' W 119°16'0 0.0
2017-Dec-10 01:56N 34°15' W 119°16'0 0.0
2017-Dec-10 01:22N 34°15' W 119°16'0 0.0
2017-Dec-10 00:56N 34°15' W 119°16'0 0.0
2017-Dec-09 22:53N 34°15' W 119°16'0 0.0
2017-Dec-09 20:47N 34°15' W 119°16'0 0.0
2017-Dec-09 19:13N 34°15' W 119°16'0 0.0
2017-Dec-09 16:41N 34°15' W 119°16'0 0.0
2017-Dec-09 16:16N 34°15' W 119°16'0 0.0
2017-Dec-09 15:50N 34°15' W 119°16'0 0.0
2017-Dec-09 15:26N 34°15' W 119°16'0 0.0
2017-Dec-09 12:53N 34°15' W 119°16'0 0.0
2017-Dec-09 12:02N 34°15' W 119°16'0 0.0
2017-Dec-09 11:59N 34°15' W 119°16'0 0.0
2017-Dec-09 10:41N 34°15' W 119°16'0 0.0
2017-Dec-09 09:29N 34°15' W 119°16'0 0.0
2017-Dec-09 05:41N 34°15' W 119°16'0 0.0
2017-Dec-09 05:26N 34°15' W 119°16'0 0.0
2017-Dec-09 03:10N 34°15' W 119°16'0 0.0
2017-Dec-08 23:43N 34°15' W 119°16'0 0.0
2017-Dec-08 23:25N 34°15' W 119°16'0 0.0
2017-Dec-08 22:58N 34°15' W 119°16'0 0.0
2017-Dec-08 21:01N 34°14' W 119°16'0 0.0
2017-Dec-08 20:58N 34°14' W 119°16'0 0.0
2017-Dec-08 20:22N 34°15' W 119°16'0 0.0
2017-Dec-08 17:25N 34°15' W 119°16'1 1.6
2017-Dec-08 16:53N 34°15' W 119°17'1 2.0
2017-Dec-08 16:24N 34°14' W 119°16'0 0.0
2017-Dec-08 15:12N 34°14' W 119°16'0 0.1
2017-Dec-08 14:03N 34°15' W 119°16'0 0.6
2017-Dec-08 13:56N 34°15' W 119°16'3 6.6
2017-Dec-08 13:29N 34°13' W 119°19'5 9.1
2017-Dec-08 12:57N 34°09' W 119°22'4 8.7
2017-Dec-08 12:29N 34°06' W 119°25'4 9.0
2017-Dec-08 12:00N 34°03' W 119°29'4 0.3
2017-Dec-08 00:41N 33°60' W 119°31'310.2
2017-Dec-08 00:22N 34°02' W 119°29'4 9.8
2017-Dec-08 00:00N 34°05' W 119°26'5 9.6
2017-Dec-07 23:26N 34°09' W 119°22'4 9.7
2017-Dec-07 22:59N 34°13' W 119°19'3 1.1
2017-Dec-07 20:13N 34°15' W 119°16'0 0.0
2017-Dec-07 16:45N 34°14' W 119°16'0 0.0
2017-Dec-07 14:56N 34°15' W 119°16'3 7.2
2017-Dec-07 14:30N 34°14' W 119°20'5 9.3
2017-Dec-07 13:59N 34°14' W 119°25'5 8.8
2017-Dec-07 13:25N 34°14' W 119°31'4 8.8
2017-Dec-07 12:58N 34°14' W 119°36'5 8.9
2017-Dec-07 12:26N 34°13' W 119°42'4 9.0
2017-Dec-07 11:59N 34°13' W 119°47'6 9.3
2017-Dec-07 11:19N 34°09' W 119°52'6 8.8
2017-Dec-07 10:36N 34°03' W 119°57'1 8.0
2017-Dec-07 10:29N 34°03' W 119°56'3 5.7
2017-Dec-07 10:00N 34°00' W 119°54'17 2.6
2017-Dec-07 03:42N 33°58' W 119°34'210.3
2017-Dec-07 03:30N 33°58' W 119°32'5 9.8
2017-Dec-07 03:00N 33°56' W 119°26'6 9.2
2017-Dec-07 02:18N 33°55' W 119°19'3 9.1
2017-Dec-07 02:01N 33°54' W 119°16'5 9.6
2017-Dec-07 01:30N 33°53' W 119°10'5 9.5
2017-Dec-07 01:00N 33°52' W 119°04'5 9.4
2017-Dec-07 00:30N 33°51' W 118°59'5 9.1
2017-Dec-07 00:00N 33°49' W 118°54'5 9.2
2017-Dec-06 23:30N 33°48' W 118°48'5 9.5
2017-Dec-06 23:01N 33°47' W 118°43'5 9.4
2017-Dec-06 22:31N 33°46' W 118°37'  
2017-Dec-04 09:45N 34°15' W 119°16'2 5.6
2017-Dec-04 09:27N 34°14' W 119°18'4 9.0
2017-Dec-04 08:58N 34°11' W 119°21'4 8.7
2017-Dec-04 08:30N 34°08' W 119°25'5 8.8
2017-Dec-04 07:56N 34°04' W 119°28'8 0.7
2017-Dec-03 20:26N 33°59' W 119°36'410.2
2017-Dec-03 20:00N 34°00' W 119°31'5 9.6
2017-Dec-03 19:30N 34°04' W 119°27'5 9.4
2017-Dec-03 19:00N 34°08' W 119°24'5 9.5
2017-Dec-03 18:26N 34°12' W 119°19'4 0.3
2017-Dec-03 06:00N 34°15' W 119°16'0 0.0
2017-Dec-03 05:30N 34°15' W 119°16'0 0.0
2017-Dec-03 03:06N 34°15' W 119°16'0 0.0
2017-Dec-03 00:42N 34°15' W 119°16'0 0.0
2017-Dec-03 00:12N 34°15' W 119°16'0 0.0
2017-Dec-02 23:00N 34°15' W 119°16'0 0.0
2017-Dec-02 21:39N 34°14' W 119°16'0 0.0
2017-Dec-02 21:27N 34°14' W 119°16'0 0.0
2017-Dec-02 20:48N 34°15' W 119°16'0 0.0
2017-Dec-02 19:57N 34°15' W 119°16'0 0.0
2017-Dec-02 16:48N 34°15' W 119°16'0 0.0
2017-Dec-02 15:10N 34°15' W 119°16'0 0.0
2017-Dec-02 14:43N 34°15' W 119°16'0 0.0
2017-Dec-02 14:28N 34°15' W 119°16'0 0.0
2017-Dec-02 13:13N 34°15' W 119°16'0 0.0
2017-Dec-02 12:58N 34°15' W 119°16'0 0.0
2017-Dec-02 12:22N 34°15' W 119°16'0 0.0
2017-Dec-02 10:58N 34°15' W 119°16'0 0.0
2017-Dec-02 10:28N 34°15' W 119°16'0 0.0
2017-Dec-02 08:52N 34°15' W 119°16'0 0.0
2017-Dec-02 08:28N 34°15' W 119°16'0 0.0
2017-Dec-02 07:31N 34°15' W 119°16'0 0.0
2017-Dec-02 06:10N 34°15' W 119°16'0 0.0
2017-Dec-02 04:19N 34°15' W 119°16'0 0.0
2017-Dec-02 03:52N 34°15' W 119°16'0 0.0
2017-Dec-02 02:22N 34°15' W 119°16'0 0.0
2017-Dec-02 01:55N 34°15' W 119°16'0 0.0
2017-Dec-02 00:37N 34°15' W 119°16'0 0.0
2017-Dec-02 00:28N 34°15' W 119°16'0 0.0
2017-Dec-01 22:37N 34°15' W 119°16'0 0.0
2017-Dec-01 21:34N 34°14' W 119°16'0 0.0
2017-Dec-01 19:31N 34°15' W 119°16'0 0.0
2017-Dec-01 19:22N 34°15' W 119°16'0 0.0
2017-Dec-01 18:43N 34°15' W 119°16'0 0.0
2017-Dec-01 18:28N 34°15' W 119°16'0 0.0
2017-Dec-01 17:49N 34°15' W 119°16'0 0.0
2017-Dec-01 15:58N 34°15' W 119°16'  

Dump ship's entire track history